Scenic, Washington
Current Conditions -  °F | °C
As of 4:53 PM on Monday 20 Oct 2014 (Local Time) from KRNT Reporting Station
Scattered Clouds Scattered Clouds  
Wind Chill: 59°   Ceiling: Unl
Heat Index: 59°   Visibility: 9mi
Dew Point: 55°   Wind: 3mph
Humidity: 87%   Direction: 110°ESE
Pressure: 29.75"   Gusts: NA
Location:  47.6494°N, 121.356°W
Report Text: KRNT 202353Z 11003KT 9SM FEW070 SCT110 15/13 A2975 RMK AO2 RAB05E26 SLP080 P0000 60003 T01500128 10167 20150 56002
Loading
Personal Weather Stations






























Interactive Weather Map
Tropical Storm Tracking
New forecast layout! Learn more

10-Day Weather Forecast

Advertisements
Track Severe Weather on mobile